sensor_id;sensor_type;location;lat;lon;timestamp;P1;durP1;ratioP1;P2;durP2;ratioP2
15449;SDS011;7826;49.784;9.934;2024-02-26T00:00:12;4.90;;;3.70;;
15449;SDS011;7826;49.784;9.934;2024-02-26T00:02:39;3.70;;;3.27;;
15449;SDS011;7826;49.784;9.934;2024-02-26T00:05:05;3.40;;;3.10;;
15449;SDS011;7826;49.784;9.934;2024-02-26T00:07:33;3.73;;;3.37;;
15449;SDS011;7826;49.784;9.934;2024-02-26T00:09:59;3.43;;;2.93;;
15449;SDS011;7826;49.784;9.934;2024-02-26T00:12:25;4.07;;;3.50;;
15449;SDS011;7826;49.784;9.934;2024-02-26T00:14:51;3.50;;;3.20;;
15449;SDS011;7826;49.784;9.934;2024-02-26T00:17:18;4.07;;;3.27;;
15449;SDS011;7826;49.784;9.934;2024-02-26T00:19:44;4.43;;;3.67;;
15449;SDS011;7826;49.784;9.934;2024-02-26T00:22:10;4.50;;;3.47;;
15449;SDS011;7826;49.784;9.934;2024-02-26T00:24:36;3.70;;;3.33;;
15449;SDS011;7826;49.784;9.934;2024-02-26T00:27:02;4.27;;;3.40;;
15449;SDS011;7826;49.784;9.934;2024-02-26T00:29:28;4.80;;;3.10;;
15449;SDS011;7826;49.784;9.934;2024-02-26T00:31:55;5.47;;;3.47;;
15449;SDS011;7826;49.784;9.934;2024-02-26T00:34:21;3.93;;;3.40;;
15449;SDS011;7826;49.784;9.934;2024-02-26T00:36:47;3.83;;;3.33;;
15449;SDS011;7826;49.784;9.934;2024-02-26T00:39:13;3.47;;;3.17;;
15449;SDS011;7826;49.784;9.934;2024-02-26T00:41:39;4.17;;;3.30;;
15449;SDS011;7826;49.784;9.934;2024-02-26T00:44:06;3.57;;;3.27;;
15449;SDS011;7826;49.784;9.934;2024-02-26T00:46:32;4.37;;;3.43;;
15449;SDS011;7826;49.784;9.934;2024-02-26T00:48:58;3.87;;;3.47;;
15449;SDS011;7826;49.784;9.934;2024-02-26T00:51:26;3.97;;;3.40;;
15449;SDS011;7826;49.784;9.934;2024-02-26T00:53:52;3.30;;;2.93;;
15449;SDS011;7826;49.784;9.934;2024-02-26T00:56:18;4.00;;;3.47;;
15449;SDS011;7826;49.784;9.934;2024-02-26T00:58:44;3.40;;;3.10;;
15449;SDS011;7826;49.784;9.934;2024-02-26T01:01:10;4.00;;;3.27;;
15449;SDS011;7826;49.784;9.934;2024-02-26T01:03:36;4.20;;;3.20;;
15449;SDS011;7826;49.784;9.934;2024-02-26T01:06:02;5.80;;;3.30;;
15449;SDS011;7826;49.784;9.934;2024-02-26T01:08:28;4.73;;;3.17;;
15449;SDS011;7826;49.784;9.934;2024-02-26T01:10:54;4.73;;;3.20;;
15449;SDS011;7826;49.784;9.934;2024-02-26T01:13:21;4.33;;;3.53;;
15449;SDS011;7826;49.784;9.934;2024-02-26T01:15:47;4.53;;;3.37;;
15449;SDS011;7826;49.784;9.934;2024-02-26T01:18:13;4.10;;;3.40;;
15449;SDS011;7826;49.784;9.934;2024-02-26T01:20:39;4.50;;;3.37;;
15449;SDS011;7826;49.784;9.934;2024-02-26T01:23:05;5.27;;;3.37;;
15449;SDS011;7826;49.784;9.934;2024-02-26T01:25:31;3.97;;;3.47;;
15449;SDS011;7826;49.784;9.934;2024-02-26T01:27:58;3.90;;;3.43;;
15449;SDS011;7826;49.784;9.934;2024-02-26T01:30:24;4.50;;;3.97;;
15449;SDS011;7826;49.784;9.934;2024-02-26T01:32:50;3.93;;;3.50;;
15449;SDS011;7826;49.784;9.934;2024-02-26T01:35:16;4.03;;;3.50;;
15449;SDS011;7826;49.784;9.934;2024-02-26T01:37:42;5.57;;;3.53;;
15449;SDS011;7826;49.784;9.934;2024-02-26T01:40:08;3.97;;;3.33;;
15449;SDS011;7826;49.784;9.934;2024-02-26T01:42:36;4.40;;;3.40;;
15449;SDS011;7826;49.784;9.934;2024-02-26T01:45:04;5.57;;;3.90;;
15449;SDS011;7826;49.784;9.934;2024-02-26T01:47:32;4.23;;;3.83;;
15449;SDS011;7826;49.784;9.934;2024-02-26T01:49:59;5.33;;;4.00;;
15449;SDS011;7826;49.784;9.934;2024-02-26T01:52:25;4.30;;;3.90;;
15449;SDS011;7826;49.784;9.934;2024-02-26T01:54:52;7.03;;;3.73;;
15449;SDS011;7826;49.784;9.934;2024-02-26T01:57:18;4.00;;;3.60;;
15449;SDS011;7826;49.784;9.934;2024-02-26T01:59:44;6.50;;;3.83;;
15449;SDS011;7826;49.784;9.934;2024-02-26T02:02:10;3.87;;;3.53;;
15449;SDS011;7826;49.784;9.934;2024-02-26T02:04:38;4.77;;;3.50;;
15449;SDS011;7826;49.784;9.934;2024-02-26T02:07:05;4.80;;;3.60;;
15449;SDS011;7826;49.784;9.934;2024-02-26T02:09:31;5.10;;;3.50;;
15449;SDS011;7826;49.784;9.934;2024-02-26T02:11:58;4.30;;;3.47;;
15449;SDS011;7826;49.784;9.934;2024-02-26T02:14:24;5.60;;;3.50;;
15449;SDS011;7826;49.784;9.934;2024-02-26T02:16:51;5.90;;;3.80;;
15449;SDS011;7826;49.784;9.934;2024-02-26T02:19:17;4.20;;;3.70;;
15449;SDS011;7826;49.784;9.934;2024-02-26T02:21:43;4.03;;;3.63;;
15449;SDS011;7826;49.784;9.934;2024-02-26T02:24:09;4.33;;;3.90;;
15449;SDS011;7826;49.784;9.934;2024-02-26T02:26:35;5.50;;;3.77;;
15449;SDS011;7826;49.784;9.934;2024-02-26T02:29:02;4.97;;;3.90;;
15449;SDS011;7826;49.784;9.934;2024-02-26T02:31:29;5.27;;;3.57;;
15449;SDS011;7826;49.784;9.934;2024-02-26T02:33:56;4.97;;;3.90;;
15449;SDS011;7826;49.784;9.934;2024-02-26T02:36:22;4.83;;;4.20;;
15449;SDS011;7826;49.784;9.934;2024-02-26T02:38:49;4.50;;;4.10;;
15449;SDS011;7826;49.784;9.934;2024-02-26T02:41:16;5.23;;;4.60;;
15449;SDS011;7826;49.784;9.934;2024-02-26T02:43:42;4.97;;;4.40;;
15449;SDS011;7826;49.784;9.934;2024-02-26T02:46:08;6.27;;;4.73;;
15449;SDS011;7826;49.784;9.934;2024-02-26T02:48:34;5.80;;;4.40;;
15449;SDS011;7826;49.784;9.934;2024-02-26T02:51:00;4.57;;;4.17;;
15449;SDS011;7826;49.784;9.934;2024-02-26T02:53:26;5.80;;;4.30;;
15449;SDS011;7826;49.784;9.934;2024-02-26T02:55:52;4.93;;;4.43;;
15449;SDS011;7826;49.784;9.934;2024-02-26T02:58:18;4.70;;;4.20;;
15449;SDS011;7826;49.784;9.934;2024-02-26T03:00:44;5.87;;;4.43;;
15449;SDS011;7826;49.784;9.934;2024-02-26T03:03:10;4.60;;;4.00;;
15449;SDS011;7826;49.784;9.934;2024-02-26T03:05:37;4.73;;;4.13;;
15449;SDS011;7826;49.784;9.934;2024-02-26T03:08:03;5.43;;;4.93;;
15449;SDS011;7826;49.784;9.934;2024-02-26T03:10:29;4.67;;;4.23;;
15449;SDS011;7826;49.784;9.934;2024-02-26T03:12:55;5.70;;;4.40;;
15449;SDS011;7826;49.784;9.934;2024-02-26T03:15:22;6.33;;;4.80;;
15449;SDS011;7826;49.784;9.934;2024-02-26T03:17:48;7.00;;;4.43;;
15449;SDS011;7826;49.784;9.934;2024-02-26T03:20:14;5.50;;;4.63;;
15449;SDS011;7826;49.784;9.934;2024-02-26T03:22:40;5.27;;;4.20;;
15449;SDS011;7826;49.784;9.934;2024-02-26T03:25:06;6.37;;;4.03;;
15449;SDS011;7826;49.784;9.934;2024-02-26T03:27:33;6.17;;;4.23;;
15449;SDS011;7826;49.784;9.934;2024-02-26T03:29:59;5.23;;;4.60;;
15449;SDS011;7826;49.784;9.934;2024-02-26T03:32:25;5.90;;;4.73;;
15449;SDS011;7826;49.784;9.934;2024-02-26T03:34:51;5.50;;;4.93;;
15449;SDS011;7826;49.784;9.934;2024-02-26T03:37:20;5.13;;;4.63;;
15449;SDS011;7826;49.784;9.934;2024-02-26T03:39:46;6.87;;;4.57;;
15449;SDS011;7826;49.784;9.934;2024-02-26T03:42:12;6.23;;;4.97;;
15449;SDS011;7826;49.784;9.934;2024-02-26T03:44:38;6.00;;;4.70;;
15449;SDS011;7826;49.784;9.934;2024-02-26T03:47:04;6.30;;;5.13;;
15449;SDS011;7826;49.784;9.934;2024-02-26T03:49:30;7.43;;;5.37;;
15449;SDS011;7826;49.784;9.934;2024-02-26T03:51:56;7.47;;;5.37;;
15449;SDS011;7826;49.784;9.934;2024-02-26T03:54:23;6.90;;;5.20;;
15449;SDS011;7826;49.784;9.934;2024-02-26T03:56:49;6.23;;;5.60;;
15449;SDS011;7826;49.784;9.934;2024-02-26T03:59:16;7.80;;;6.20;;
15449;SDS011;7826;49.784;9.934;2024-02-26T04:01:45;7.73;;;6.17;;
15449;SDS011;7826;49.784;9.934;2024-02-26T04:04:15;8.00;;;6.47;;
15449;SDS011;7826;49.784;9.934;2024-02-26T04:06:47;8.63;;;6.77;;
15449;SDS011;7826;49.784;9.934;2024-02-26T04:09:13;7.73;;;5.83;;
15449;SDS011;7826;49.784;9.934;2024-02-26T04:11:40;7.83;;;5.70;;
15449;SDS011;7826;49.784;9.934;2024-02-26T04:14:08;8.00;;;5.80;;
15449;SDS011;7826;49.784;9.934;2024-02-26T04:16:37;8.17;;;5.90;;
15449;SDS011;7826;49.784;9.934;2024-02-26T04:19:04;8.23;;;5.90;;
15449;SDS011;7826;49.784;9.934;2024-02-26T04:21:30;7.60;;;6.37;;
15449;SDS011;7826;49.784;9.934;2024-02-26T04:23:56;7.43;;;6.33;;
15449;SDS011;7826;49.784;9.934;2024-02-26T04:26:26;7.37;;;6.23;;
15449;SDS011;7826;49.784;9.934;2024-02-26T04:28:52;10.00;;;7.10;;
15449;SDS011;7826;49.784;9.934;2024-02-26T04:31:18;9.20;;;6.77;;
15449;SDS011;7826;49.784;9.934;2024-02-26T04:33:44;9.60;;;7.13;;
15449;SDS011;7826;49.784;9.934;2024-02-26T04:36:13;8.80;;;7.20;;
15449;SDS011;7826;49.784;9.934;2024-02-26T04:38:42;8.47;;;7.13;;
15449;SDS011;7826;49.784;9.934;2024-02-26T04:41:11;10.90;;;7.70;;
15449;SDS011;7826;49.784;9.934;2024-02-26T04:43:37;10.27;;;7.57;;
15449;SDS011;7826;49.784;9.934;2024-02-26T04:46:07;10.10;;;7.27;;
15449;SDS011;7826;49.784;9.934;2024-02-26T04:48:34;9.40;;;7.87;;
15449;SDS011;7826;49.784;9.934;2024-02-26T04:51:01;10.47;;;7.60;;
15449;SDS011;7826;49.784;9.934;2024-02-26T04:53:27;9.87;;;7.87;;
15449;SDS011;7826;49.784;9.934;2024-02-26T04:55:54;9.27;;;7.70;;
15449;SDS011;7826;49.784;9.934;2024-02-26T04:58:20;10.63;;;7.40;;
15449;SDS011;7826;49.784;9.934;2024-02-26T05:00:46;8.87;;;6.97;;
15449;SDS011;7826;49.784;9.934;2024-02-26T05:03:12;9.10;;;7.20;;
15449;SDS011;7826;49.784;9.934;2024-02-26T05:05:40;11.03;;;8.13;;
15449;SDS011;7826;49.784;9.934;2024-02-26T05:08:07;9.30;;;7.67;;
15449;SDS011;7826;49.784;9.934;2024-02-26T05:10:33;9.37;;;7.97;;
15449;SDS011;7826;49.784;9.934;2024-02-26T05:13:00;10.77;;;7.87;;
15449;SDS011;7826;49.784;9.934;2024-02-26T05:15:26;11.63;;;8.00;;
15449;SDS011;7826;49.784;9.934;2024-02-26T05:17:52;11.77;;;7.43;;
15449;SDS011;7826;49.784;9.934;2024-02-26T05:20:18;11.07;;;8.53;;
15449;SDS011;7826;49.784;9.934;2024-02-26T05:22:44;9.87;;;8.43;;
15449;SDS011;7826;49.784;9.934;2024-02-26T05:25:10;12.33;;;8.50;;
15449;SDS011;7826;49.784;9.934;2024-02-26T05:27:36;10.83;;;7.93;;
15449;SDS011;7826;49.784;9.934;2024-02-26T05:30:02;12.50;;;8.80;;
15449;SDS011;7826;49.784;9.934;2024-02-26T05:32:29;11.60;;;9.23;;
15449;SDS011;7826;49.784;9.934;2024-02-26T05:34:55;11.50;;;9.03;;
15449;SDS011;7826;49.784;9.934;2024-02-26T05:37:21;10.73;;;8.83;;
15449;SDS011;7826;49.784;9.934;2024-02-26T05:39:48;12.73;;;8.43;;
15449;SDS011;7826;49.784;9.934;2024-02-26T05:42:14;14.90;;;9.47;;
15449;SDS011;7826;49.784;9.934;2024-02-26T05:44:41;11.70;;;8.83;;
15449;SDS011;7826;49.784;9.934;2024-02-26T05:47:07;11.30;;;8.60;;
15449;SDS011;7826;49.784;9.934;2024-02-26T05:49:33;13.93;;;9.13;;
15449;SDS011;7826;49.784;9.934;2024-02-26T05:51:59;13.27;;;9.53;;
15449;SDS011;7826;49.784;9.934;2024-02-26T05:54:25;11.53;;;8.93;;
15449;SDS011;7826;49.784;9.934;2024-02-26T05:56:52;10.90;;;8.97;;
15449;SDS011;7826;49.784;9.934;2024-02-26T05:59:18;12.23;;;8.40;;
15449;SDS011;7826;49.784;9.934;2024-02-26T06:01:44;15.67;;;9.30;;
15449;SDS011;7826;49.784;9.934;2024-02-26T06:04:10;13.33;;;8.83;;
15449;SDS011;7826;49.784;9.934;2024-02-26T06:06:37;10.60;;;8.77;;
15449;SDS011;7826;49.784;9.934;2024-02-26T06:09:04;11.17;;;8.30;;
15449;SDS011;7826;49.784;9.934;2024-02-26T06:11:30;11.07;;;8.57;;
15449;SDS011;7826;49.784;9.934;2024-02-26T06:13:57;12.77;;;8.60;;
15449;SDS011;7826;49.784;9.934;2024-02-26T06:16:23;13.33;;;9.43;;
15449;SDS011;7826;49.784;9.934;2024-02-26T06:18:49;11.03;;;8.40;;
15449;SDS011;7826;49.784;9.934;2024-02-26T06:21:15;12.40;;;8.53;;
15449;SDS011;7826;49.784;9.934;2024-02-26T06:23:41;13.87;;;8.60;;
15449;SDS011;7826;49.784;9.934;2024-02-26T06:26:07;13.03;;;9.00;;
15449;SDS011;7826;49.784;9.934;2024-02-26T06:28:34;11.57;;;8.30;;
15449;SDS011;7826;49.784;9.934;2024-02-26T06:31:01;12.13;;;8.80;;
15449;SDS011;7826;49.784;9.934;2024-02-26T06:33:28;13.47;;;8.77;;
15449;SDS011;7826;49.784;9.934;2024-02-26T06:35:54;10.80;;;8.27;;
15449;SDS011;7826;49.784;9.934;2024-02-26T06:38:20;12.63;;;9.47;;
15449;SDS011;7826;49.784;9.934;2024-02-26T06:40:47;14.63;;;9.47;;
15449;SDS011;7826;49.784;9.934;2024-02-26T06:43:13;14.00;;;9.50;;
15449;SDS011;7826;49.784;9.934;2024-02-26T06:45:39;13.33;;;9.37;;
15449;SDS011;7826;49.784;9.934;2024-02-26T06:48:05;14.73;;;9.73;;
15449;SDS011;7826;49.784;9.934;2024-02-26T06:50:31;19.70;;;11.87;;
15449;SDS011;7826;49.784;9.934;2024-02-26T06:52:58;16.03;;;11.17;;
15449;SDS011;7826;49.784;9.934;2024-02-26T06:55:24;14.83;;;10.70;;
15449;SDS011;7826;49.784;9.934;2024-02-26T06:57:50;15.33;;;10.83;;
15449;SDS011;7826;49.784;9.934;2024-02-26T07:00:16;12.27;;;10.07;;
15449;SDS011;7826;49.784;9.934;2024-02-26T07:02:43;17.10;;;10.43;;
15449;SDS011;7826;49.784;9.934;2024-02-26T07:05:09;14.90;;;10.10;;
15449;SDS011;7826;49.784;9.934;2024-02-26T07:07:35;14.47;;;9.73;;
15449;SDS011;7826;49.784;9.934;2024-02-26T07:10:02;13.93;;;9.77;;
15449;SDS011;7826;49.784;9.934;2024-02-26T07:12:29;12.53;;;9.20;;
15449;SDS011;7826;49.784;9.934;2024-02-26T07:14:55;13.87;;;9.83;;
15449;SDS011;7826;49.784;9.934;2024-02-26T07:17:22;13.30;;;9.37;;
15449;SDS011;7826;49.784;9.934;2024-02-26T07:19:48;13.13;;;9.20;;
15449;SDS011;7826;49.784;9.934;2024-02-26T07:22:14;14.10;;;9.27;;
15449;SDS011;7826;49.784;9.934;2024-02-26T07:24:40;15.43;;;9.77;;
15449;SDS011;7826;49.784;9.934;2024-02-26T07:27:06;12.77;;;9.37;;
15449;SDS011;7826;49.784;9.934;2024-02-26T07:29:33;12.67;;;9.50;;
15449;SDS011;7826;49.784;9.934;2024-02-26T07:31:59;13.83;;;9.67;;
15449;SDS011;7826;49.784;9.934;2024-02-26T07:34:25;13.50;;;10.20;;
15449;SDS011;7826;49.784;9.934;2024-02-26T07:36:55;12.03;;;9.30;;
15449;SDS011;7826;49.784;9.934;2024-02-26T07:39:22;13.93;;;10.40;;
15449;SDS011;7826;49.784;9.934;2024-02-26T07:41:48;14.80;;;11.10;;
15449;SDS011;7826;49.784;9.934;2024-02-26T07:44:17;18.47;;;13.13;;
15449;SDS011;7826;49.784;9.934;2024-02-26T07:46:44;19.83;;;12.13;;
15449;SDS011;7826;49.784;9.934;2024-02-26T07:49:10;17.27;;;12.37;;
15449;SDS011;7826;49.784;9.934;2024-02-26T07:51:36;20.40;;;13.50;;
15449;SDS011;7826;49.784;9.934;2024-02-26T07:54:02;17.93;;;12.47;;
15449;SDS011;7826;49.784;9.934;2024-02-26T07:56:28;20.27;;;12.53;;
15449;SDS011;7826;49.784;9.934;2024-02-26T07:58:54;18.83;;;12.60;;
15449;SDS011;7826;49.784;9.934;2024-02-26T08:01:20;14.73;;;11.77;;
15449;SDS011;7826;49.784;9.934;2024-02-26T08:03:46;18.37;;;12.40;;
15449;SDS011;7826;49.784;9.934;2024-02-26T08:06:12;17.30;;;12.40;;
15449;SDS011;7826;49.784;9.934;2024-02-26T08:08:38;17.63;;;12.10;;
15449;SDS011;7826;49.784;9.934;2024-02-26T08:11:05;17.60;;;12.73;;
15449;SDS011;7826;49.784;9.934;2024-02-26T08:13:31;17.03;;;12.30;;
15449;SDS011;7826;49.784;9.934;2024-02-26T08:15:57;17.13;;;12.37;;
15449;SDS011;7826;49.784;9.934;2024-02-26T08:18:24;15.27;;;11.77;;
15449;SDS011;7826;49.784;9.934;2024-02-26T08:20:50;16.57;;;12.57;;
15449;SDS011;7826;49.784;9.934;2024-02-26T08:23:17;16.60;;;12.77;;
15449;SDS011;7826;49.784;9.934;2024-02-26T08:25:43;17.97;;;12.77;;
15449;SDS011;7826;49.784;9.934;2024-02-26T08:28:09;17.10;;;13.37;;
15449;SDS011;7826;49.784;9.934;2024-02-26T08:30:38;17.90;;;12.77;;
15449;SDS011;7826;49.784;9.934;2024-02-26T08:33:04;19.20;;;13.37;;
15449;SDS011;7826;49.784;9.934;2024-02-26T08:35:31;16.77;;;12.80;;
15449;SDS011;7826;49.784;9.934;2024-02-26T08:37:57;17.00;;;13.37;;
15449;SDS011;7826;49.784;9.934;2024-02-26T08:40:23;16.60;;;13.00;;
15449;SDS011;7826;49.784;9.934;2024-02-26T08:42:50;16.60;;;13.53;;
15449;SDS011;7826;49.784;9.934;2024-02-26T08:45:16;19.47;;;13.37;;
15449;SDS011;7826;49.784;9.934;2024-02-26T08:47:44;16.00;;;13.17;;
15449;SDS011;7826;49.784;9.934;2024-02-26T08:50:11;14.93;;;12.23;;
15449;SDS011;7826;49.784;9.934;2024-02-26T08:52:38;14.97;;;12.53;;
15449;SDS011;7826;49.784;9.934;2024-02-26T08:55:04;15.83;;;12.80;;
15449;SDS011;7826;49.784;9.934;2024-02-26T08:57:31;15.00;;;12.90;;
15449;SDS011;7826;49.784;9.934;2024-02-26T08:59:59;14.50;;;12.67;;
15449;SDS011;7826;49.784;9.934;2024-02-26T09:02:27;14.37;;;12.87;;
15449;SDS011;7826;49.784;9.934;2024-02-26T09:04:53;16.53;;;13.33;;
15449;SDS011;7826;49.784;9.934;2024-02-26T09:07:21;14.47;;;12.83;;
15449;SDS011;7826;49.784;9.934;2024-02-26T09:09:47;14.87;;;13.13;;
15449;SDS011;7826;49.784;9.934;2024-02-26T09:12:14;14.37;;;12.63;;
15449;SDS011;7826;49.784;9.934;2024-02-26T09:14:40;16.77;;;13.67;;
15449;SDS011;7826;49.784;9.934;2024-02-26T09:17:06;15.60;;;13.70;;
15449;SDS011;7826;49.784;9.934;2024-02-26T09:19:33;18.83;;;14.97;;
15449;SDS011;7826;49.784;9.934;2024-02-26T09:21:59;18.30;;;14.67;;
15449;SDS011;7826;49.784;9.934;2024-02-26T09:24:25;18.40;;;13.83;;
15449;SDS011;7826;49.784;9.934;2024-02-26T09:26:52;18.40;;;14.20;;
15449;SDS011;7826;49.784;9.934;2024-02-26T09:29:18;17.77;;;14.00;;
15449;SDS011;7826;49.784;9.934;2024-02-26T09:31:44;17.33;;;13.43;;
15449;SDS011;7826;49.784;9.934;2024-02-26T09:34:13;19.00;;;14.03;;
15449;SDS011;7826;49.784;9.934;2024-02-26T09:36:39;19.33;;;14.00;;
15449;SDS011;7826;49.784;9.934;2024-02-26T09:39:05;16.73;;;12.87;;
15449;SDS011;7826;49.784;9.934;2024-02-26T09:41:36;17.00;;;13.20;;
15449;SDS011;7826;49.784;9.934;2024-02-26T09:44:04;17.77;;;13.60;;
15449;SDS011;7826;49.784;9.934;2024-02-26T09:46:31;18.40;;;13.47;;
15449;SDS011;7826;49.784;9.934;2024-02-26T09:48:57;18.30;;;14.00;;
15449;SDS011;7826;49.784;9.934;2024-02-26T09:51:23;16.53;;;13.27;;
15449;SDS011;7826;49.784;9.934;2024-02-26T09:53:52;17.87;;;12.67;;
15449;SDS011;7826;49.784;9.934;2024-02-26T09:56:19;15.47;;;12.80;;
15449;SDS011;7826;49.784;9.934;2024-02-26T09:58:46;18.33;;;13.47;;
15449;SDS011;7826;49.784;9.934;2024-02-26T10:01:18;16.47;;;12.90;;
15449;SDS011;7826;49.784;9.934;2024-02-26T10:03:50;16.73;;;13.20;;
15449;SDS011;7826;49.784;9.934;2024-02-26T10:06:21;17.73;;;12.50;;
15449;SDS011;7826;49.784;9.934;2024-02-26T10:08:48;17.13;;;12.97;;
15449;SDS011;7826;49.784;9.934;2024-02-26T10:11:14;15.93;;;12.97;;
15449;SDS011;7826;49.784;9.934;2024-02-26T10:13:41;17.20;;;12.10;;
15449;SDS011;7826;49.784;9.934;2024-02-26T10:16:07;15.23;;;12.17;;
15449;SDS011;7826;49.784;9.934;2024-02-26T10:18:46;15.30;;;12.47;;
15449;SDS011;7826;49.784;9.934;2024-02-26T10:21:16;15.07;;;12.07;;
15449;SDS011;7826;49.784;9.934;2024-02-26T10:23:45;15.97;;;11.67;;
15449;SDS011;7826;49.784;9.934;2024-02-26T10:26:13;12.77;;;10.60;;
15449;SDS011;7826;49.784;9.934;2024-02-26T10:28:44;12.77;;;10.90;;
15449;SDS011;7826;49.784;9.934;2024-02-26T10:31:11;15.47;;;10.77;;
15449;SDS011;7826;49.784;9.934;2024-02-26T10:33:39;14.47;;;11.27;;
15449;SDS011;7826;49.784;9.934;2024-02-26T10:36:07;14.20;;;11.43;;
15449;SDS011;7826;49.784;9.934;2024-02-26T10:38:37;16.87;;;11.83;;
15449;SDS011;7826;49.784;9.934;2024-02-26T10:41:04;15.73;;;11.43;;
15449;SDS011;7826;49.784;9.934;2024-02-26T10:43:32;16.23;;;11.33;;
15449;SDS011;7826;49.784;9.934;2024-02-26T10:45:58;13.37;;;10.63;;
15449;SDS011;7826;49.784;9.934;2024-02-26T10:48:24;16.53;;;10.93;;
15449;SDS011;7826;49.784;9.934;2024-02-26T10:50:50;13.10;;;10.13;;
15449;SDS011;7826;49.784;9.934;2024-02-26T10:53:21;13.30;;;10.37;;
15449;SDS011;7826;49.784;9.934;2024-02-26T10:55:49;13.67;;;9.50;;
15449;SDS011;7826;49.784;9.934;2024-02-26T10:58:27;14.47;;;10.53;;
15449;SDS011;7826;49.784;9.934;2024-02-26T11:00:54;12.57;;;9.67;;
15449;SDS011;7826;49.784;9.934;2024-02-26T11:03:22;14.50;;;9.63;;
15449;SDS011;7826;49.784;9.934;2024-02-26T11:05:50;12.13;;;9.37;;
15449;SDS011;7826;49.784;9.934;2024-02-26T11:08:19;12.97;;;8.30;;
15449;SDS011;7826;49.784;9.934;2024-02-26T11:10:50;13.37;;;8.13;;
15449;SDS011;7826;49.784;9.934;2024-02-26T11:13:19;12.63;;;9.03;;
15449;SDS011;7826;49.784;9.934;2024-02-26T11:15:47;12.40;;;8.50;;
15449;SDS011;7826;49.784;9.934;2024-02-26T11:18:17;11.07;;;7.90;;
15449;SDS011;7826;49.784;9.934;2024-02-26T11:20:45;10.20;;;7.80;;
15449;SDS011;7826;49.784;9.934;2024-02-26T11:23:13;9.87;;;8.27;;
15449;SDS011;7826;49.784;9.934;2024-02-26T11:25:40;10.93;;;8.40;;
15449;SDS011;7826;49.784;9.934;2024-02-26T11:28:11;11.97;;;8.83;;
15449;SDS011;7826;49.784;9.934;2024-02-26T11:30:42;11.60;;;7.83;;
15449;SDS011;7826;49.784;9.934;2024-02-26T11:33:11;9.57;;;8.03;;
15449;SDS011;7826;49.784;9.934;2024-02-26T11:35:38;10.60;;;7.93;;
15449;SDS011;7826;49.784;9.934;2024-02-26T11:38:05;10.80;;;7.63;;
15449;SDS011;7826;49.784;9.934;2024-02-26T11:40:33;9.57;;;8.17;;
15449;SDS011;7826;49.784;9.934;2024-02-26T11:43:05;9.57;;;7.80;;
15449;SDS011;7826;49.784;9.934;2024-02-26T11:48:15;12.43;;;7.47;;
15449;SDS011;7826;49.784;9.934;2024-02-26T11:50:46;8.57;;;7.43;;
15449;SDS011;7826;49.784;9.934;2024-02-26T11:53:47;7.83;;;6.73;;
15449;SDS011;7826;49.784;9.934;2024-02-26T11:58:45;8.03;;;6.83;;
15449;SDS011;7826;49.784;9.934;2024-02-26T12:04:06;12.93;;;9.50;;
15449;SDS011;7826;49.784;9.934;2024-02-26T12:06:54;13.27;;;9.97;;
15449;SDS011;7826;49.784;9.934;2024-02-26T12:09:41;13.43;;;10.10;;
15449;SDS011;7826;49.784;9.934;2024-02-26T12:12:09;13.13;;;10.63;;
15449;SDS011;7826;49.784;9.934;2024-02-26T12:14:40;12.07;;;9.97;;
15449;SDS011;7826;49.784;9.934;2024-02-26T12:17:21;14.67;;;10.53;;
15449;SDS011;7826;49.784;9.934;2024-02-26T12:19:48;13.57;;;11.00;;
15449;SDS011;7826;49.784;9.934;2024-02-26T12:22:15;14.93;;;10.70;;
15449;SDS011;7826;49.784;9.934;2024-02-26T12:24:42;12.60;;;9.63;;
15449;SDS011;7826;49.784;9.934;2024-02-26T12:27:09;13.17;;;10.83;;
15449;SDS011;7826;49.784;9.934;2024-02-26T12:29:35;14.33;;;10.43;;
15449;SDS011;7826;49.784;9.934;2024-02-26T12:32:02;13.50;;;10.10;;
15449;SDS011;7826;49.784;9.934;2024-02-26T12:34:31;15.07;;;10.40;;
15449;SDS011;7826;49.784;9.934;2024-02-26T12:36:57;13.67;;;10.20;;
15449;SDS011;7826;49.784;9.934;2024-02-26T12:39:23;12.73;;;9.93;;
15449;SDS011;7826;49.784;9.934;2024-02-26T12:41:50;11.60;;;9.47;;
15449;SDS011;7826;49.784;9.934;2024-02-26T12:44:17;10.27;;;8.77;;
15449;SDS011;7826;49.784;9.934;2024-02-26T12:46:43;10.77;;;8.93;;
15449;SDS011;7826;49.784;9.934;2024-02-26T12:49:19;10.80;;;8.90;;
15449;SDS011;7826;49.784;9.934;2024-02-26T12:51:45;13.80;;;8.43;;
15449;SDS011;7826;49.784;9.934;2024-02-26T12:54:11;9.93;;;7.90;;
15449;SDS011;7826;49.784;9.934;2024-02-26T12:56:38;10.67;;;7.90;;
15449;SDS011;7826;49.784;9.934;2024-02-26T12:59:04;11.83;;;8.00;;
15449;SDS011;7826;49.784;9.934;2024-02-26T13:01:31;10.77;;;8.30;;
15449;SDS011;7826;49.784;9.934;2024-02-26T13:03:57;11.17;;;8.00;;
15449;SDS011;7826;49.784;9.934;2024-02-26T13:06:26;11.83;;;8.13;;
15449;SDS011;7826;49.784;9.934;2024-02-26T13:08:56;9.47;;;7.73;;
15449;SDS011;7826;49.784;9.934;2024-02-26T13:11:27;10.10;;;7.60;;
15449;SDS011;7826;49.784;9.934;2024-02-26T13:13:54;9.27;;;7.30;;
15449;SDS011;7826;49.784;9.934;2024-02-26T13:16:23;7.87;;;6.90;;
15449;SDS011;7826;49.784;9.934;2024-02-26T13:18:50;9.43;;;6.93;;
15449;SDS011;7826;49.784;9.934;2024-02-26T13:21:17;11.80;;;7.30;;
15449;SDS011;7826;49.784;9.934;2024-02-26T13:23:48;8.67;;;6.30;;
15449;SDS011;7826;49.784;9.934;2024-02-26T13:26:21;8.97;;;6.23;;
15449;SDS011;7826;49.784;9.934;2024-02-26T13:28:58;9.00;;;6.10;;
15449;SDS011;7826;49.784;9.934;2024-02-26T13:31:29;7.40;;;6.20;;
15449;SDS011;7826;49.784;9.934;2024-02-26T13:33:55;7.03;;;5.60;;
15449;SDS011;7826;49.784;9.934;2024-02-26T13:36:22;7.47;;;5.47;;
15449;SDS011;7826;49.784;9.934;2024-02-26T13:38:54;7.83;;;6.13;;
15449;SDS011;7826;49.784;9.934;2024-02-26T13:41:21;8.57;;;6.00;;
15449;SDS011;7826;49.784;9.934;2024-02-26T13:43:48;7.27;;;5.70;;
15449;SDS011;7826;49.784;9.934;2024-02-26T13:46:15;8.43;;;6.30;;
15449;SDS011;7826;49.784;9.934;2024-02-26T13:48:42;8.57;;;5.70;;
15449;SDS011;7826;49.784;9.934;2024-02-26T13:51:09;9.37;;;6.50;;
15449;SDS011;7826;49.784;9.934;2024-02-26T13:53:35;8.47;;;6.03;;
15449;SDS011;7826;49.784;9.934;2024-02-26T13:56:02;8.60;;;6.20;;
15449;SDS011;7826;49.784;9.934;2024-02-26T13:58:31;9.50;;;6.27;;
15449;SDS011;7826;49.784;9.934;2024-02-26T14:00:57;8.37;;;5.67;;
15449;SDS011;7826;49.784;9.934;2024-02-26T14:03:25;7.33;;;5.40;;
15449;SDS011;7826;49.784;9.934;2024-02-26T14:05:52;7.97;;;5.67;;
15449;SDS011;7826;49.784;9.934;2024-02-26T14:08:18;8.77;;;5.60;;
15449;SDS011;7826;49.784;9.934;2024-02-26T14:10:44;9.30;;;6.03;;
15449;SDS011;7826;49.784;9.934;2024-02-26T14:13:10;7.83;;;5.77;;
15449;SDS011;7826;49.784;9.934;2024-02-26T14:15:36;7.40;;;5.57;;
15449;SDS011;7826;49.784;9.934;2024-02-26T14:18:04;8.57;;;6.13;;
15449;SDS011;7826;49.784;9.934;2024-02-26T14:20:31;10.30;;;5.87;;
15449;SDS011;7826;49.784;9.934;2024-02-26T14:22:57;8.50;;;6.53;;
15449;SDS011;7826;49.784;9.934;2024-02-26T14:25:23;9.93;;;6.37;;
15449;SDS011;7826;49.784;9.934;2024-02-26T14:27:49;7.60;;;6.30;;
15449;SDS011;7826;49.784;9.934;2024-02-26T14:30:15;7.17;;;5.73;;
15449;SDS011;7826;49.784;9.934;2024-02-26T14:32:42;6.80;;;5.10;;
15449;SDS011;7826;49.784;9.934;2024-02-26T14:35:09;7.03;;;5.47;;
15449;SDS011;7826;49.784;9.934;2024-02-26T14:37:36;7.30;;;5.10;;
15449;SDS011;7826;49.784;9.934;2024-02-26T14:40:02;6.43;;;5.10;;
15449;SDS011;7826;49.784;9.934;2024-02-26T14:42:29;7.83;;;5.17;;
15449;SDS011;7826;49.784;9.934;2024-02-26T14:44:55;5.83;;;4.50;;
15449;SDS011;7826;49.784;9.934;2024-02-26T14:47:21;5.40;;;4.23;;
15449;SDS011;7826;49.784;9.934;2024-02-26T14:49:47;4.60;;;4.20;;
15449;SDS011;7826;49.784;9.934;2024-02-26T14:52:14;4.33;;;3.90;;
15449;SDS011;7826;49.784;9.934;2024-02-26T14:54:40;4.60;;;3.50;;
15449;SDS011;7826;49.784;9.934;2024-02-26T14:57:06;4.07;;;2.83;;